createdAt,value
2018-06-19T00:01:33.748Z,3.87
2018-06-19T00:04:02.702Z,4.37
2018-06-19T00:06:31.702Z,3.50
2018-06-19T00:09:00.634Z,3.63
2018-06-19T00:11:29.640Z,4.20
2018-06-19T00:13:58.583Z,3.33
2018-06-19T00:16:27.612Z,3.60
2018-06-19T00:18:59.113Z,3.20
2018-06-19T00:21:34.919Z,3.80
2018-06-19T00:24:03.925Z,3.57
2018-06-19T00:26:32.945Z,3.77
2018-06-19T00:29:02.202Z,4.67
2018-06-19T00:31:31.264Z,3.90
2018-06-19T00:34:00.194Z,4.10
2018-06-19T00:36:29.249Z,3.90
2018-06-19T00:38:58.223Z,4.50
2018-06-19T00:41:27.182Z,3.90
2018-06-19T00:43:56.213Z,3.97
2018-06-19T00:46:27.331Z,4.03
2018-06-19T00:48:56.352Z,4.43
2018-06-19T00:51:25.310Z,3.73
2018-06-19T00:53:54.477Z,4.10
2018-06-19T00:56:34.528Z,3.80
2018-06-19T00:59:03.734Z,3.40
2018-06-19T01:01:32.817Z,4.13
2018-06-19T01:04:01.811Z,4.20
2018-06-19T01:06:30.771Z,3.80
2018-06-19T01:08:59.774Z,3.90
2018-06-19T01:11:28.770Z,3.90
2018-06-19T01:13:57.770Z,4.20
2018-06-19T01:16:27.621Z,4.10
2018-06-19T01:18:56.686Z,3.90
2018-06-19T01:21:25.631Z,4.30
2018-06-19T01:23:54.637Z,3.90
2018-06-19T01:26:23.614Z,3.73
2018-06-19T01:28:52.769Z,4.17
2018-06-19T01:31:21.842Z,4.17
2018-06-19T01:33:51.142Z,4.17
2018-06-19T01:36:20.404Z,3.63
2018-06-19T01:38:49.542Z,4.00
2018-06-19T01:41:18.795Z,3.57
2018-06-19T01:43:47.831Z,4.10
2018-06-19T01:46:16.768Z,3.70
2018-06-19T01:48:45.902Z,3.73
2018-06-19T01:51:14.862Z,3.87
2018-06-19T01:53:43.903Z,4.40
2018-06-19T01:56:12.891Z,3.70
2018-06-19T01:58:41.916Z,4.73
2018-06-19T02:01:10.990Z,4.07
2018-06-19T02:03:40.022Z,3.83
2018-06-19T02:06:08.974Z,4.10
2018-06-19T02:08:37.983Z,3.90
2018-06-19T02:11:06.964Z,4.57
2018-06-19T02:13:36.003Z,4.57
2018-06-19T02:16:04.972Z,4.20
2018-06-19T02:18:34.014Z,4.40
2018-06-19T02:21:03.013Z,4.23
2018-06-19T02:23:32.016Z,4.83
2018-06-19T02:26:00.922Z,4.33
2018-06-19T02:28:29.910Z,4.83
2018-06-19T02:30:58.837Z,4.60
2018-06-19T02:33:27.824Z,3.90
2018-06-19T02:35:56.754Z,3.80
2018-06-19T02:38:25.782Z,3.80
2018-06-19T02:40:54.731Z,4.07
2018-06-19T02:43:23.775Z,3.73
2018-06-19T02:45:52.756Z,3.60
2018-06-19T02:48:21.722Z,3.97
2018-06-19T02:50:50.742Z,3.70
2018-06-19T02:53:19.683Z,4.03
2018-06-19T02:55:48.680Z,4.07
2018-06-19T02:58:17.622Z,4.03
2018-06-19T03:00:46.729Z,4.20
2018-06-19T03:03:15.662Z,4.00
2018-06-19T03:05:44.629Z,4.27
2018-06-19T03:08:13.570Z,3.90
2018-06-19T03:10:42.555Z,4.40
2018-06-19T03:13:11.490Z,3.50
2018-06-19T03:15:40.493Z,4.10
2018-06-19T03:18:09.480Z,4.17
2018-06-19T03:20:38.493Z,3.90
2018-06-19T03:23:07.539Z,3.40
2018-06-19T03:25:36.508Z,4.10
2018-06-19T03:28:05.452Z,3.83
2018-06-19T03:30:34.449Z,4.20
2018-06-19T03:33:03.403Z,4.60
2018-06-19T03:35:32.382Z,4.27
2018-06-19T03:38:01.335Z,3.60
2018-06-19T03:40:30.352Z,4.37
2018-06-19T03:42:59.281Z,4.50
2018-06-19T03:45:28.262Z,4.10
2018-06-19T03:47:57.222Z,4.50
2018-06-19T03:50:26.230Z,3.80
2018-06-19T03:52:55.193Z,3.83
2018-06-19T03:55:24.212Z,4.17
2018-06-19T03:57:53.187Z,4.07
2018-06-19T04:00:22.203Z,4.40
2018-06-19T04:02:51.173Z,4.40
2018-06-19T04:05:20.143Z,4.30
2018-06-19T04:07:49.095Z,4.30
2018-06-19T04:10:18.095Z,3.60
2018-06-19T04:12:47.072Z,3.90
2018-06-19T04:15:16.106Z,3.73
2018-06-19T04:17:45.085Z,4.47
2018-06-19T04:20:14.222Z,4.03
2018-06-19T04:22:43.207Z,4.07
2018-06-19T04:25:12.214Z,4.40
2018-06-19T04:27:41.178Z,3.87
2018-06-19T04:30:10.184Z,4.33
2018-06-19T04:32:39.184Z,4.70
2018-06-19T04:35:08.174Z,4.00
2018-06-19T04:37:37.178Z,4.60
2018-06-19T04:40:06.192Z,4.37
2018-06-19T04:42:35.185Z,4.13
2018-06-19T04:45:04.188Z,3.93
2018-06-19T04:47:33.189Z,4.30
2018-06-19T04:50:02.138Z,4.10
2018-06-19T04:52:31.131Z,4.50
2018-06-19T04:55:00.070Z,4.60
2018-06-19T04:57:29.116Z,4.27
2018-06-19T04:59:58.154Z,4.87
2018-06-19T05:02:27.157Z,4.20
2018-06-19T05:04:56.153Z,4.00
2018-06-19T05:07:25.166Z,4.40
2018-06-19T05:09:54.152Z,3.93
2018-06-19T05:12:23.193Z,4.30
2018-06-19T05:14:52.265Z,3.90
2018-06-19T05:17:21.273Z,4.20
2018-06-19T05:19:50.377Z,3.83
2018-06-19T05:22:19.435Z,3.83
2018-06-19T05:24:48.423Z,3.50
2018-06-19T05:27:17.483Z,3.33
2018-06-19T05:29:46.502Z,3.20
2018-06-19T05:32:15.501Z,3.63
2018-06-19T05:34:44.463Z,3.00
2018-06-19T05:37:13.601Z,3.27
2018-06-19T05:39:43.362Z,2.90
2018-06-19T05:42:13.109Z,3.33
2018-06-19T05:44:42.886Z,3.10
2018-06-19T05:47:12.694Z,2.80
2018-06-19T05:49:42.400Z,2.70
2018-06-19T05:52:12.216Z,3.07
2018-06-19T05:54:42.061Z,2.57
2018-06-19T05:57:11.808Z,2.80
2018-06-19T05:59:41.683Z,2.77
2018-06-19T06:02:11.412Z,2.70
2018-06-19T06:04:41.257Z,2.50
2018-06-19T06:07:11.004Z,3.03
2018-06-19T06:09:40.810Z,3.00
2018-06-19T06:12:10.598Z,2.50
2018-06-19T06:14:40.368Z,2.63
2018-06-19T06:17:09.947Z,2.33
2018-06-19T06:19:39.786Z,3.03
2018-06-19T06:22:09.567Z,2.07
2018-06-19T06:24:39.368Z,3.30
2018-06-19T06:27:09.534Z,2.40
2018-06-19T06:29:39.360Z,2.00
2018-06-19T06:32:09.236Z,2.60
2018-06-19T06:34:39.033Z,2.30
2018-06-19T06:37:08.811Z,2.27
2018-06-19T06:39:38.686Z,1.80
2018-06-19T06:42:08.430Z,2.03
2018-06-19T06:44:38.243Z,2.20
2018-06-19T06:47:08.481Z,1.93
2018-06-19T06:49:38.377Z,2.20
2018-06-19T06:52:08.078Z,2.10
2018-06-19T06:54:38.150Z,2.20
2018-06-19T06:57:08.184Z,1.67
2018-06-19T06:59:38.209Z,3.17
2018-06-19T07:02:08.252Z,2.30
2018-06-19T07:04:38.101Z,2.03
2018-06-19T07:07:07.842Z,2.30
2018-06-19T07:09:37.629Z,2.40
2018-06-19T07:12:07.468Z,2.00
2018-06-19T07:14:37.282Z,2.20
2018-06-19T07:17:07.276Z,2.20
2018-06-19T07:19:37.104Z,1.70
2018-06-19T07:22:06.862Z,1.80
2018-06-19T07:24:36.771Z,1.87
2018-06-19T07:27:06.549Z,2.40
2018-06-19T07:29:36.315Z,1.67
2018-06-19T07:32:06.123Z,1.43
2018-06-19T07:34:35.868Z,1.70
2018-06-19T07:37:05.670Z,1.60
2018-06-19T07:39:35.553Z,1.40
2018-06-19T07:42:04.601Z,1.63
2018-06-19T07:44:33.680Z,1.97
2018-06-19T07:47:02.667Z,1.90
2018-06-19T07:49:32.451Z,1.70
2018-06-19T07:52:02.336Z,1.57
2018-06-19T07:54:32.051Z,1.60
2018-06-19T07:57:01.834Z,1.50
2018-06-19T07:59:31.664Z,2.00
2018-06-19T08:02:01.507Z,1.40
2018-06-19T08:04:31.219Z,1.50
2018-06-19T08:07:01.149Z,1.70
2018-06-19T08:09:30.084Z,2.17
2018-06-19T08:11:59.047Z,1.00
2018-06-19T08:14:28.006Z,1.27
2018-06-19T08:16:56.988Z,1.30
2018-06-19T08:19:25.939Z,1.30
2018-06-19T08:21:55.855Z,1.10
2018-06-19T08:24:25.627Z,1.10
2018-06-19T08:26:55.446Z,1.10
2018-06-19T08:29:25.367Z,1.30
2018-06-19T08:31:55.198Z,0.90
2018-06-19T08:34:24.854Z,1.00
2018-06-19T08:36:54.958Z,0.80
2018-06-19T08:39:24.801Z,0.97
2018-06-19T08:41:54.687Z,1.50
2018-06-19T08:44:24.463Z,1.00
2018-06-19T08:46:54.231Z,0.80
2018-06-19T08:49:23.911Z,1.00
2018-06-19T08:51:53.822Z,1.07
2018-06-19T08:54:23.637Z,1.10
2018-06-19T08:56:53.594Z,0.90
2018-06-19T08:59:23.339Z,1.33
2018-06-19T09:01:53.198Z,0.90
2018-06-19T09:04:23.394Z,0.90
2018-06-19T09:06:53.203Z,0.80
2018-06-19T09:09:23.321Z,0.90
2018-06-19T09:11:53.064Z,0.90
2018-06-19T09:14:22.762Z,0.70
2018-06-19T09:16:52.518Z,1.00
2018-06-19T09:19:22.339Z,0.80
2018-06-19T09:21:52.191Z,0.60
2018-06-19T09:24:22.061Z,0.70
2018-06-19T09:26:51.858Z,0.70
2018-06-19T09:29:21.888Z,0.70
2018-06-19T09:31:50.899Z,0.60
2018-06-19T09:34:19.916Z,0.70
2018-06-19T09:36:48.864Z,0.40
2018-06-19T09:39:18.563Z,0.70
2018-06-19T09:41:47.536Z,0.50
2018-06-19T09:44:16.538Z,0.60
2018-06-19T09:46:45.491Z,0.57
2018-06-19T09:49:14.497Z,0.70
2018-06-19T09:51:43.607Z,1.60
2018-06-19T09:54:12.622Z,0.70
2018-06-19T09:56:41.596Z,0.50
2018-06-19T09:59:10.697Z,0.60
2018-06-19T10:01:39.646Z,0.60
2018-06-19T10:04:08.648Z,0.93
2018-06-19T10:06:38.526Z,0.60
2018-06-19T10:09:10.231Z,0.60
2018-06-19T10:11:40.106Z,0.80
2018-06-19T10:14:09.972Z,0.70
2018-06-19T10:16:39.798Z,0.60
2018-06-19T10:19:09.571Z,0.60
2018-06-19T10:21:39.364Z,0.80
2018-06-19T10:24:09.009Z,0.70
2018-06-19T10:26:38.809Z,0.90
2018-06-19T10:29:08.900Z,0.70
2018-06-19T10:31:38.743Z,1.10
2018-06-19T10:34:08.501Z,0.80
2018-06-19T10:36:38.223Z,0.87
2018-06-19T10:39:10.837Z,0.80
2018-06-19T10:41:40.670Z,0.90
2018-06-19T10:44:10.547Z,1.00
2018-06-19T10:46:40.303Z,0.93
2018-06-19T10:49:10.017Z,1.00
2018-06-19T10:51:39.814Z,1.00
2018-06-19T10:54:09.477Z,1.10
2018-06-19T10:56:39.541Z,1.17
2018-06-19T10:59:09.418Z,1.20
2018-06-19T11:01:39.160Z,1.20
2018-06-19T11:04:08.891Z,1.60
2018-06-19T11:06:38.686Z,1.77
2018-06-19T11:09:10.695Z,1.10
2018-06-19T11:11:39.906Z,1.33
2018-06-19T11:14:08.984Z,1.20
2018-06-19T11:16:37.934Z,1.57
2018-06-19T11:19:06.902Z,1.20
2018-06-19T11:21:35.873Z,1.00
2018-06-19T11:24:05.006Z,1.10
2018-06-19T11:26:33.808Z,1.50
2018-06-19T11:29:02.814Z,2.33
2018-06-19T11:31:31.758Z,1.20
2018-06-19T11:34:00.722Z,1.13
2018-06-19T11:36:29.714Z,0.93
2018-06-19T11:38:58.688Z,1.20
2018-06-19T11:41:27.766Z,1.10
2018-06-19T11:43:57.015Z,0.97
2018-06-19T11:46:26.178Z,1.13
2018-06-19T11:48:55.134Z,1.10
2018-06-19T11:51:25.020Z,1.10
2018-06-19T11:53:54.130Z,1.10
2018-06-19T11:56:23.901Z,1.80
2018-06-19T11:58:53.916Z,1.50
2018-06-19T12:01:23.690Z,1.40
2018-06-19T12:03:53.480Z,1.27
2018-06-19T12:06:23.302Z,1.00
2018-06-19T12:08:53.091Z,1.23
2018-06-19T12:11:22.806Z,1.33
2018-06-19T12:13:52.639Z,1.20
2018-06-19T12:16:22.383Z,1.23
2018-06-19T12:18:52.230Z,1.30
2018-06-19T12:21:21.962Z,1.37
2018-06-19T12:23:51.983Z,1.33
2018-06-19T12:26:21.786Z,1.10
2018-06-19T12:28:51.685Z,1.40
2018-06-19T12:31:20.624Z,1.27
2018-06-19T12:33:55.893Z,1.30
2018-06-19T12:36:24.979Z,1.30
2018-06-19T12:38:54.006Z,1.53
2018-06-19T12:41:23.299Z,1.13
2018-06-19T12:43:52.290Z,1.03
2018-06-19T12:46:21.251Z,1.23
2018-06-19T12:48:50.253Z,1.30
2018-06-19T12:52:00.752Z,1.50
2018-06-19T12:56:38.008Z,1.40
2018-06-19T12:59:07.018Z,1.50
2018-06-19T13:01:36.357Z,1.30
2018-06-19T13:04:16.258Z,1.10
2018-06-19T13:06:45.376Z,1.40
2018-06-19T13:09:14.482Z,1.13
2018-06-19T13:11:44.134Z,1.07
2018-06-19T13:14:24.100Z,1.20
2018-06-19T13:17:03.901Z,1.17
2018-06-19T13:19:43.766Z,1.00
2018-06-19T13:22:13.194Z,1.30
2018-06-19T13:24:43.019Z,1.20
2018-06-19T13:27:12.026Z,1.10
2018-06-19T13:29:55.150Z,1.17
2018-06-19T13:32:24.680Z,1.27
2018-06-19T13:34:54.172Z,0.90
2018-06-19T13:37:23.130Z,1.53
2018-06-19T13:41:01.418Z,1.87
2018-06-19T13:43:41.791Z,1.17
2018-06-19T13:46:11.407Z,1.43
2018-06-19T13:48:41.150Z,1.60
2018-06-19T13:51:10.596Z,1.30
2018-06-19T13:53:39.681Z,1.30
2018-06-19T13:57:20.937Z,1.20
2018-06-19T13:59:50.766Z,1.27
2018-06-19T14:02:20.109Z,1.20
2018-06-19T14:04:49.254Z,1.40
2018-06-19T14:07:18.366Z,1.67
2018-06-19T14:09:58.322Z,1.53
2018-06-19T14:12:58.582Z,1.20
2018-06-19T14:15:28.663Z,1.30
2018-06-19T14:17:57.981Z,1.40
2018-06-19T14:20:27.047Z,1.10
2018-06-19T14:22:56.038Z,1.60
2018-06-19T14:25:25.242Z,1.40
2018-06-19T14:27:54.254Z,1.43
2018-06-19T14:30:23.193Z,1.37
2018-06-19T14:32:52.174Z,1.00
2018-06-19T14:35:21.168Z,1.40
2018-06-19T14:37:50.164Z,1.30
2018-06-19T14:40:19.144Z,1.30
2018-06-19T14:42:48.105Z,1.30
2018-06-19T14:45:17.058Z,1.57
2018-06-19T14:47:46.075Z,1.30
2018-06-19T14:50:15.374Z,1.50
2018-06-19T14:52:44.343Z,1.30
2018-06-19T14:55:13.282Z,1.90
2018-06-19T14:57:42.254Z,1.30
2018-06-19T15:00:11.914Z,1.50
2018-06-19T15:02:41.190Z,1.40
2018-06-19T15:05:10.134Z,1.63
2018-06-19T15:07:58.381Z,1.17
2018-06-19T15:10:27.527Z,1.57
2018-06-19T15:12:56.508Z,1.47
2018-06-19T15:15:25.439Z,1.80
2018-06-19T15:17:54.412Z,1.20
2018-06-19T15:20:23.331Z,1.43
2018-06-19T15:22:52.316Z,2.00
2018-06-19T15:25:21.344Z,1.77
2018-06-19T15:27:50.253Z,1.50
2018-06-19T15:30:19.220Z,1.30
2018-06-19T15:32:48.166Z,1.40
2018-06-19T15:35:17.161Z,1.40
2018-06-19T15:37:46.236Z,1.40
2018-06-19T15:40:15.205Z,1.60
2018-06-19T15:42:44.171Z,1.50
2018-06-19T15:45:13.165Z,1.50
2018-06-19T15:47:42.107Z,1.50
2018-06-19T15:50:11.271Z,1.40
2018-06-19T15:52:40.202Z,1.63
2018-06-19T15:55:09.314Z,1.50
2018-06-19T15:57:38.307Z,1.40
2018-06-19T16:00:07.313Z,1.40
2018-06-19T16:02:36.237Z,1.37
2018-06-19T16:05:05.246Z,1.40
2018-06-19T16:07:34.315Z,1.73
2018-06-19T16:10:04.122Z,1.30
2018-06-19T16:12:33.338Z,1.47
2018-06-19T16:15:02.344Z,1.73
2018-06-19T16:17:31.306Z,1.40
2018-06-19T16:20:00.374Z,1.77
2018-06-19T16:22:29.326Z,1.53
2018-06-19T16:24:58.421Z,1.50
2018-06-19T16:27:27.801Z,1.57
2018-06-19T16:29:56.905Z,1.70
2018-06-19T16:32:25.839Z,1.43
2018-06-19T16:34:54.845Z,1.50
2018-06-19T16:37:23.790Z,1.60
2018-06-19T16:39:53.510Z,1.70
2018-06-19T16:42:22.774Z,1.60
2018-06-19T16:44:51.785Z,1.30
2018-06-19T16:47:20.734Z,1.50
2018-06-19T16:49:49.695Z,1.37
2018-06-19T16:52:18.901Z,1.67
2018-06-19T16:54:47.891Z,1.60
2018-06-19T16:57:16.898Z,1.60
2018-06-19T16:59:45.881Z,1.47
2018-06-19T17:02:14.864Z,1.33
2018-06-19T17:04:43.842Z,1.73
2018-06-19T17:07:12.865Z,1.57
2018-06-19T17:09:41.803Z,1.67
2018-06-19T17:12:10.788Z,1.50
2018-06-19T17:14:39.885Z,1.63
2018-06-19T17:17:08.978Z,1.90
2018-06-19T17:19:38.084Z,1.10
2018-06-19T17:22:07.071Z,1.50
2018-06-19T17:24:36.016Z,1.60
2018-06-19T17:27:05.005Z,1.87
2018-06-19T17:29:33.939Z,1.30
2018-06-19T17:32:03.015Z,1.47
2018-06-19T17:34:31.985Z,1.47
2018-06-19T17:37:01.096Z,1.73
2018-06-19T17:39:30.191Z,1.57
2018-06-19T17:41:59.255Z,1.40
2018-06-19T17:44:28.182Z,2.90
2018-06-19T17:46:57.276Z,1.20
2018-06-19T17:49:26.199Z,1.47
2018-06-19T17:51:55.187Z,1.70
2018-06-19T17:54:24.129Z,1.40
2018-06-19T17:56:53.129Z,1.40
2018-06-19T17:59:22.182Z,1.53
2018-06-19T18:01:51.114Z,1.90
2018-06-19T18:04:20.384Z,1.60
2018-06-19T18:06:49.317Z,1.67
2018-06-19T18:09:18.424Z,1.80
2018-06-19T18:11:47.358Z,1.80
2018-06-19T18:14:16.319Z,1.67
2018-06-19T18:16:45.267Z,1.60
2018-06-19T18:19:14.275Z,1.80
2018-06-19T18:21:43.221Z,1.50
2018-06-19T18:24:12.204Z,2.23
2018-06-19T18:26:41.178Z,1.90
2018-06-19T18:29:10.364Z,2.00
2018-06-19T18:31:39.282Z,1.70
2018-06-19T18:34:08.265Z,1.70
2018-06-19T18:36:37.247Z,1.90
2018-06-19T18:39:09.013Z,2.10
2018-06-19T18:41:37.989Z,1.73
2018-06-19T18:44:07.015Z,2.23
2018-06-19T18:46:35.993Z,1.87
2018-06-19T18:49:05.187Z,1.93
2018-06-19T18:51:34.151Z,1.80
2018-06-19T18:54:03.154Z,1.87
2018-06-19T18:56:32.107Z,1.77
2018-06-19T18:59:01.083Z,2.27
2018-06-19T19:01:30.016Z,2.03
2018-06-19T19:03:58.984Z,1.80
2018-06-19T19:06:27.956Z,2.10
2018-06-19T19:08:56.924Z,2.60
2018-06-19T19:11:25.863Z,2.00
2018-06-19T19:13:54.858Z,2.00
2018-06-19T19:16:29.006Z,2.00
2018-06-19T19:19:02.004Z,1.70
2018-06-19T19:21:31.009Z,1.70
2018-06-19T19:23:59.945Z,1.90
2018-06-19T19:26:34.114Z,1.93
2018-06-19T19:29:08.304Z,1.80
2018-06-19T19:31:37.321Z,2.43
2018-06-19T19:34:06.615Z,2.10
2018-06-19T19:36:40.615Z,1.90
2018-06-19T19:39:14.949Z,2.00
2018-06-19T19:41:45.281Z,1.90
2018-06-19T19:44:14.358Z,1.77
2018-06-19T19:46:48.394Z,2.23
2018-06-19T19:49:17.363Z,2.40
2018-06-19T19:51:46.357Z,2.30
2018-06-19T19:54:15.324Z,1.90
2018-06-19T19:56:49.570Z,2.53
2018-06-19T19:59:18.591Z,2.90
2018-06-19T20:01:47.786Z,2.20
2018-06-19T20:04:16.738Z,2.33
2018-06-19T20:06:45.745Z,2.20
2018-06-19T20:09:14.687Z,2.40
2018-06-19T20:11:43.707Z,2.20
2018-06-19T20:14:12.687Z,2.10
2018-06-19T20:16:41.698Z,2.20
2018-06-19T20:19:10.654Z,2.33
2018-06-19T20:21:39.673Z,2.20
2018-06-19T20:24:08.607Z,2.07
2018-06-19T20:26:37.589Z,2.20
2018-06-19T20:29:06.609Z,2.50
2018-06-19T20:31:35.743Z,2.50
2018-06-19T20:34:04.883Z,2.30
2018-06-19T20:36:33.879Z,2.67
2018-06-19T20:39:02.920Z,2.60
2018-06-19T20:41:31.939Z,2.27
2018-06-19T20:44:00.902Z,2.40
2018-06-19T20:46:29.900Z,2.47
2018-06-19T20:48:58.860Z,2.23
2018-06-19T20:51:27.834Z,2.53
2018-06-19T20:53:56.838Z,2.20
2018-06-19T20:56:25.837Z,2.60
2018-06-19T20:58:54.830Z,2.30
2018-06-19T21:01:23.791Z,2.93
2018-06-19T21:03:52.776Z,2.57
2018-06-19T21:06:21.724Z,3.20
2018-06-19T21:08:50.731Z,2.73
2018-06-19T21:11:19.691Z,2.77
2018-06-19T21:13:48.652Z,2.87
2018-06-19T21:16:17.607Z,2.70
2018-06-19T21:18:46.627Z,2.77
2018-06-19T21:21:15.578Z,2.70
2018-06-19T21:23:44.572Z,2.37
2018-06-19T21:26:13.522Z,2.33
2018-06-19T21:28:42.515Z,2.93
2018-06-19T21:31:11.487Z,2.67
2018-06-19T21:33:40.502Z,2.70
2018-06-19T21:36:09.495Z,2.80
2018-06-19T21:38:38.489Z,2.80
2018-06-19T21:41:07.446Z,2.90
2018-06-19T21:43:36.427Z,3.13
2018-06-19T21:46:05.743Z,2.50
2018-06-19T21:48:35.306Z,2.93
2018-06-19T21:51:04.278Z,2.87
2018-06-19T21:53:33.262Z,2.73
2018-06-19T21:56:02.225Z,2.93
2018-06-19T21:58:31.269Z,2.90
2018-06-19T22:01:00.215Z,2.73
2018-06-19T22:03:29.211Z,3.03
2018-06-19T22:05:58.193Z,2.70
2018-06-19T22:08:31.258Z,3.10
2018-06-19T22:11:00.241Z,3.23
2018-06-19T22:13:29.356Z,3.00
2018-06-19T22:15:58.303Z,3.20
2018-06-19T22:18:27.310Z,2.90
2018-06-19T22:20:56.258Z,3.10
2018-06-19T22:23:25.287Z,3.00
2018-06-19T22:25:54.240Z,2.63
2018-06-19T22:28:23.282Z,2.63
2018-06-19T22:30:52.214Z,2.80
2018-06-19T22:33:21.263Z,2.87
2018-06-19T22:35:50.312Z,2.83
2018-06-19T22:38:19.222Z,2.73
2018-06-19T22:40:48.537Z,2.93
2018-06-19T22:43:17.467Z,3.20
2018-06-19T22:45:46.474Z,3.50
2018-06-19T22:48:15.412Z,3.20
2018-06-19T22:50:44.402Z,2.87
2018-06-19T22:53:13.434Z,2.40
2018-06-19T22:55:42.409Z,2.70
2018-06-19T22:58:11.350Z,3.03
2018-06-19T23:00:40.351Z,2.87
2018-06-19T23:03:09.270Z,2.93
2018-06-19T23:05:38.269Z,2.80
2018-06-19T23:08:07.309Z,3.10
2018-06-19T23:10:36.300Z,3.07
2018-06-19T23:13:05.215Z,2.60
2018-06-19T23:15:34.192Z,2.90
2018-06-19T23:18:03.146Z,3.03
2018-06-19T23:20:32.120Z,2.93
2018-06-19T23:23:01.306Z,3.03
2018-06-19T23:25:30.243Z,3.10
2018-06-19T23:27:59.188Z,3.10
2018-06-19T23:30:28.141Z,2.23
2018-06-19T23:32:57.078Z,2.87
2018-06-19T23:35:26.054Z,3.10
2018-06-19T23:37:54.985Z,2.90
2018-06-19T23:40:23.965Z,3.00
2018-06-19T23:42:52.902Z,3.10
2018-06-19T23:45:21.882Z,2.90
2018-06-19T23:47:50.795Z,2.70
2018-06-19T23:50:19.758Z,2.87
2018-06-19T23:52:48.676Z,2.80
2018-06-19T23:55:17.639Z,2.50
2018-06-19T23:57:46.682Z,2.30
